WetterOnline ( https://www.wetteronline.de )

Wetter aktuell Neuruppin

Aktuelles Wetter: Neuruppin - Alt Ruppin (50m)

6-stündlich | Neueste Meldungen
Ortszeit Temperatur Wetter
Di, 29.11. 1:00 2.5° C bedeckt
Mo, 28.11. 19:00 3.0° C bewölkt
Mo, 28.11. 13:00 4.7° C bedeckt
Mo, 28.11. 7:00 3.6° C bedeckt
Mo, 28.11. 1:00 4.3° C bedeckt
So, 27.11. 19:00 4.8° C bedeckt
So, 27.11. 13:00 6.4° C bewölkt
So, 27.11. 7:00 3.5° C Nebel
Ortszeit Temperatur Wetter
Di, 29.11. 4:30 2.8° C leicht bewölkt
Di, 29.11. 4:20 2.8° C Dunst
Di, 29.11. 4:10 2.8° C Dunst
Di, 29.11. 4:00 2.7° C bedeckt
Di, 29.11. 3:50 2.7° C Dunst
Di, 29.11. 3:40 2.8° C Dunst
Di, 29.11. 3:30 2.8° C bedeckt
Di, 29.11. 3:00 2.7° C bedeckt
Di, 29.11. 2:30 2.6° C bedeckt
Di, 29.11. 2:00 2.5° C bedeckt
Di, 29.11. 1:30 2.4° C bedeckt
Ortszeit Relative Feuchte Sichtweite
Di, 29.11. 1:00 92% 7 km
Mo, 28.11. 19:00 89% 10 km
Mo, 28.11. 13:00 81% 17 km
Mo, 28.11. 7:00 85% 23 km
Mo, 28.11. 1:00 87% 23 km
So, 27.11. 19:00 89% 24 km
So, 27.11. 13:00 81% 28 km
So, 27.11. 7:00 99% 2.2 km
Ortszeit Relative Feuchte Sichtweite
Di, 29.11. 4:30 91% 7 km
Di, 29.11. 4:20 91% -
Di, 29.11. 4:10 91% -
Di, 29.11. 4:00 91% 7 km
Di, 29.11. 3:50 91% -
Di, 29.11. 3:40 91% -
Di, 29.11. 3:30 90% 7 km
Di, 29.11. 3:00 92% 7 km
Di, 29.11. 2:30 92% 7 km
Di, 29.11. 2:00 92% 7 km
Di, 29.11. 1:30 92% 7 km
Ortszeit Niederschlagsmenge Niederschlagsart
Di, 29.11. 1:00 0.0 l/m2 in 6 Std. -
Mo, 28.11. 19:00 0.0 l/m2 in 12 Std. -
Mo, 28.11. 13:00 0.0 l/m2 in 6 Std. -
Mo, 28.11. 7:00 0.0 l/m2 in 12 Std. -
Mo, 28.11. 1:00 0.0 l/m2 in 6 Std. -
So, 27.11. 19:00 0.1 l/m2 in 12 Std. -
So, 27.11. 13:00 0.1 l/m2 in 6 Std. -
So, 27.11. 7:00 0.1 l/m2 in 12 Std. -
Ortszeit Niederschlagsmenge Niederschlagsart
Di, 29.11. 4:30 0.0 l/m2 in 1 Std. -
Di, 29.11. 4:20 keine Meldung -
Di, 29.11. 4:10 keine Meldung -
Di, 29.11. 4:00 0.0 l/m2 in 1 Std. -
Di, 29.11. 3:50 keine Meldung -
Di, 29.11. 3:40 keine Meldung -
Di, 29.11. 3:30 0.0 l/m2 in 1 Std. -
Di, 29.11. 3:00 0.0 l/m2 in 1 Std. -
Di, 29.11. 2:30 0.0 l/m2 in 1 Std. -
Di, 29.11. 2:00 0.0 l/m2 in 1 Std. -
Di, 29.11. 1:30 0.0 l/m2 in 1 Std. -
Ortszeit Stärke Spitze Richtung
km/h Bft. km/h Grad Sektor
Di, 29.11. 1:00 9 2 24 90° O
Mo, 28.11. 19:00 13 3 28 100° O
Mo, 28.11. 13:00 13 3 30 110° O
Mo, 28.11. 7:00 11 2 25 120° SO
Mo, 28.11. 1:00 11 2 22 120° SO
So, 27.11. 19:00 11 2 22 120° SO
So, 27.11. 13:00 7 2 18 160° S
So, 27.11. 7:00 4 1 7 160° S
Ortszeit Stärke Spitze Richtung
km/h Bft. km/h Grad Sektor
Di, 29.11. 4:30 11 2 19 90° O
Di, 29.11. 4:20 11 2 - 90° O
Di, 29.11. 4:10 11 2 - 90° O
Di, 29.11. 4:00 11 2 18 90° O
Di, 29.11. 3:50 11 2 - 90° O
Di, 29.11. 3:40 9 2 - 80° O
Di, 29.11. 3:30 11 2 18 80° O
Di, 29.11. 3:00 9 2 17 80° O
Di, 29.11. 2:30 9 2 17 90° O
Di, 29.11. 2:00 9 2 17 90° O
Di, 29.11. 1:30 9 2 15 80° O
Ortszeit Untergrenze Bedeckung Gattung
total tief tief mittel hoch
Di, 29.11. 1:00 300 m 8/8 8/8 - - -
Mo, 28.11. 19:00 390 m 8/8 7/8 - - -
Mo, 28.11. 13:00 2700 m 8/8 8/8 - - -
Mo, 28.11. 7:00 3000 m 8/8 8/8 - - -
Mo, 28.11. 1:00 3300 m 8/8 8/8 - - -
So, 27.11. 19:00 4200 m 8/8 8/8 - - -
So, 27.11. 13:00 6600 m 7/8 7/8 - - -
So, 27.11. 7:00 60 m 7/8 7/8 - - -
Ortszeit Bedeckungsgrad in Achtel und Wolkenuntergrenze
Di, 29.11. 4:30 1(270m)
Di, 29.11. 4:20 1(270m) 2(1500m)
Di, 29.11. 4:10 3
Di, 29.11. 4:00 1(270m) 5(1800m) 8(2400m)
Di, 29.11. 3:50 1(270m) 5(1800m) 8(2400m)
Di, 29.11. 3:40 8
Di, 29.11. 3:30 1(300m) 8(2400m)
Di, 29.11. 3:00 1(270m) 8(2700m) 8(3900m)
Di, 29.11. 2:30 1(270m) 8(2100m) 8(3900m)
Di, 29.11. 2:00 4(1800m) 8(2100m) 8(4800m)
Di, 29.11. 1:30 8(2400m) 8(4500m) 8(8700m)
Ortszeit Luftdruck NN (hPa) Tendenz (hPa in 3 Std.)
Di, 29.11. 1:00 1017 + 0,1
Mo, 28.11. 19:00 1017 + 0,3
Mo, 28.11. 13:00 1017 - 0,8
Mo, 28.11. 7:00 1018 - 1,2
Mo, 28.11. 1:00 1021 - 1,1
So, 27.11. 19:00 1023 - 1,4
So, 27.11. 13:00 1026 - 1,0
So, 27.11. 7:00 1028 - 0,5
Ortszeit Luftdruck NN (hPa) Tendenz (hPa in 3 Std.)
Di, 29.11. 4:30 1017 + 0,2
Di, 29.11. 4:20 1017 keine Meldung
Di, 29.11. 4:10 1017 keine Meldung
Di, 29.11. 4:00 1017 + 0,3
Di, 29.11. 3:50 1017 keine Meldung
Di, 29.11. 3:40 1017 keine Meldung
Di, 29.11. 3:30 1017 + 0,2
Di, 29.11. 3:00 1017 + 0,1
Di, 29.11. 2:30 1017 + 0,2
Di, 29.11. 2:00 1017 + 0,1
Di, 29.11. 1:30 1017 + 0,2
Ortszeit Schneehöhe (cm)
Di, 29.11. 1:00 0
Mo, 28.11. 19:00 0
Mo, 28.11. 13:00 0
Mo, 28.11. 7:00 0
Mo, 28.11. 1:00 0
So, 27.11. 19:00 0
So, 27.11. 13:00 0
So, 27.11. 7:00 0
Ortszeit Schneehöhe (cm)
Di, 29.11. 4:30 0
Di, 29.11. 4:20 0
Di, 29.11. 4:10 0
Di, 29.11. 4:00 0
Di, 29.11. 3:50 0
Di, 29.11. 3:40 0
Di, 29.11. 3:30 0
Di, 29.11. 3:00 0
Di, 29.11. 2:30 0
Di, 29.11. 2:00 0
Di, 29.11. 1:30 0
Link zu dieser Seite / Seite empfehlen

Das Wetter in ...